createdAt,value
2023-07-18T00:01:05.211Z,1.27
2023-07-18T00:03:33.950Z,1.20
2023-07-18T00:06:03.183Z,1.20
2023-07-18T00:08:31.851Z,1.10
2023-07-18T00:11:01.125Z,1.20
2023-07-18T00:13:29.896Z,1.20
2023-07-18T00:16:00.075Z,1.20
2023-07-18T00:18:28.883Z,1.40
2023-07-18T00:20:57.734Z,1.35
2023-07-18T00:23:26.561Z,1.40
2023-07-18T00:25:55.338Z,1.00
2023-07-18T00:28:24.321Z,1.30
2023-07-18T00:30:53.000Z,1.60
2023-07-18T00:33:23.861Z,1.38
2023-07-18T00:35:52.555Z,1.40
2023-07-18T00:38:21.870Z,1.20
2023-07-18T00:40:50.878Z,1.42
2023-07-18T00:43:19.774Z,1.17
2023-07-18T00:45:51.126Z,1.15
2023-07-18T00:48:20.120Z,1.42
2023-07-18T00:50:51.486Z,1.15
2023-07-18T00:53:20.239Z,1.20
2023-07-18T00:55:48.941Z,1.42
2023-07-18T00:58:17.854Z,1.40
2023-07-18T01:00:47.108Z,1.38
2023-07-18T01:03:17.424Z,1.55
2023-07-18T01:05:46.264Z,1.13
2023-07-18T01:08:16.402Z,1.40
2023-07-18T01:10:45.105Z,1.17
2023-07-18T01:13:14.563Z,1.30
2023-07-18T01:15:44.495Z,1.50
2023-07-18T01:18:14.358Z,1.08
2023-07-18T01:20:45.714Z,1.35
2023-07-18T01:23:16.027Z,1.40
2023-07-18T01:25:44.799Z,1.27
2023-07-18T01:28:13.535Z,1.40
2023-07-18T01:30:42.243Z,1.35
2023-07-18T01:33:11.101Z,1.50
2023-07-18T01:35:40.250Z,1.25
2023-07-18T01:38:08.943Z,1.77
2023-07-18T01:40:39.091Z,1.27
2023-07-18T01:43:07.834Z,1.27
2023-07-18T01:45:39.479Z,1.33
2023-07-18T01:48:08.279Z,1.40
2023-07-18T01:50:37.126Z,1.20
2023-07-18T01:53:05.967Z,1.40
2023-07-18T01:55:34.768Z,1.30
2023-07-18T01:58:04.818Z,1.23
2023-07-18T02:00:33.849Z,1.25
2023-07-18T02:03:02.695Z,1.63
2023-07-18T02:05:32.391Z,1.77
2023-07-18T02:08:02.532Z,1.83
2023-07-18T02:10:31.322Z,1.40
2023-07-18T02:13:02.908Z,1.42
2023-07-18T02:15:33.923Z,1.30
2023-07-18T02:18:02.704Z,1.50
2023-07-18T02:20:31.781Z,1.92
2023-07-18T02:23:02.956Z,1.42
2023-07-18T02:25:31.810Z,1.35
2023-07-18T02:28:00.944Z,1.50
2023-07-18T02:30:34.232Z,1.42
2023-07-18T02:33:06.117Z,1.30
2023-07-18T02:35:34.954Z,1.48
2023-07-18T02:38:03.740Z,1.50
2023-07-18T02:40:32.458Z,1.48
2023-07-18T02:43:01.421Z,1.48
2023-07-18T02:45:30.173Z,1.73
2023-07-18T02:47:59.033Z,1.65
2023-07-18T02:50:29.206Z,1.20
2023-07-18T02:52:59.328Z,1.40
2023-07-18T02:55:28.915Z,1.23
2023-07-18T02:57:57.920Z,1.60
2023-07-18T03:00:28.224Z,1.58
2023-07-18T03:02:57.062Z,1.33
2023-07-18T03:05:26.235Z,1.30
2023-07-18T03:07:56.503Z,1.40
2023-07-18T03:10:26.665Z,1.33
2023-07-18T03:12:55.455Z,1.60
2023-07-18T03:15:24.330Z,1.83
2023-07-18T03:17:53.109Z,1.80
2023-07-18T03:20:25.391Z,1.88
2023-07-18T03:22:54.266Z,1.52
2023-07-18T03:25:25.419Z,2.03
2023-07-18T03:27:54.386Z,1.33
2023-07-18T03:30:23.248Z,1.40
2023-07-18T03:32:52.871Z,1.60
2023-07-18T03:35:21.724Z,1.88
2023-07-18T03:37:50.809Z,1.58
2023-07-18T03:40:19.666Z,1.67
2023-07-18T03:42:50.056Z,1.80
2023-07-18T03:45:19.174Z,1.40
2023-07-18T03:47:48.295Z,1.63
2023-07-18T03:50:18.332Z,2.10
2023-07-18T03:52:47.114Z,1.63
2023-07-18T03:55:16.544Z,1.75
2023-07-18T03:57:45.283Z,1.65
2023-07-18T04:00:18.660Z,1.70
2023-07-18T04:02:48.505Z,1.50
2023-07-18T04:05:18.886Z,1.60
2023-07-18T04:07:48.213Z,2.00
2023-07-18T04:10:16.967Z,1.88
2023-07-18T04:12:46.034Z,1.92
2023-07-18T04:15:17.073Z,1.58
2023-07-18T04:17:45.888Z,1.75
2023-07-18T04:20:15.302Z,1.52
2023-07-18T04:22:44.053Z,1.80
2023-07-18T04:25:13.009Z,2.03
2023-07-18T04:27:41.774Z,1.67
2023-07-18T04:30:11.592Z,1.90
2023-07-18T04:32:43.237Z,1.70
2023-07-18T04:35:12.324Z,2.20
2023-07-18T04:37:41.053Z,1.95
2023-07-18T04:40:11.428Z,2.05
2023-07-18T04:42:40.363Z,2.15
2023-07-18T04:45:09.260Z,1.70
2023-07-18T04:47:38.162Z,1.92
2023-07-18T04:50:11.696Z,1.77
2023-07-18T04:52:40.474Z,1.77
2023-07-18T04:55:10.087Z,2.03
2023-07-18T04:57:38.929Z,1.80
2023-07-18T05:00:08.255Z,2.15
2023-07-18T05:02:37.004Z,1.80
2023-07-18T05:05:06.601Z,1.58
2023-07-18T05:07:36.810Z,2.00
2023-07-18T05:10:06.190Z,1.60
2023-07-18T05:12:34.830Z,2.10
2023-07-18T05:15:04.337Z,1.98
2023-07-18T05:17:33.267Z,1.60
2023-07-18T05:20:02.251Z,2.28
2023-07-18T05:22:31.156Z,1.80
2023-07-18T05:25:01.918Z,2.40
2023-07-18T05:27:30.595Z,1.83
2023-07-18T05:29:59.278Z,1.80
2023-07-18T05:32:28.420Z,2.30
2023-07-18T05:34:57.218Z,2.10
2023-07-18T05:37:27.057Z,2.53
2023-07-18T05:39:55.838Z,1.73
2023-07-18T05:42:25.967Z,1.50
2023-07-18T05:44:54.753Z,2.10
2023-07-18T05:47:23.627Z,1.60
2023-07-18T05:49:52.547Z,1.70
2023-07-18T05:52:21.305Z,1.73
2023-07-18T05:54:50.016Z,1.60
2023-07-18T05:57:18.829Z,1.73
2023-07-18T05:59:49.438Z,1.70
2023-07-18T06:02:18.885Z,1.52
2023-07-18T06:04:48.400Z,1.63
2023-07-18T06:07:17.470Z,1.55
2023-07-18T06:09:47.091Z,2.08
2023-07-18T06:12:17.444Z,1.60
2023-07-18T06:14:46.314Z,2.35
2023-07-18T06:17:17.909Z,1.30
2023-07-18T06:19:47.712Z,1.35
2023-07-18T06:22:16.518Z,1.58
2023-07-18T06:24:45.764Z,1.63
2023-07-18T06:27:14.443Z,1.50
2023-07-18T06:29:43.160Z,1.55
2023-07-18T06:32:12.096Z,1.45
2023-07-18T06:34:44.793Z,1.50
2023-07-18T06:37:13.672Z,1.25
2023-07-18T06:39:42.373Z,1.50
2023-07-18T06:42:11.567Z,1.30
2023-07-18T06:44:40.755Z,1.27
2023-07-18T06:47:09.667Z,1.40
2023-07-18T06:49:38.562Z,1.38
2023-07-18T06:52:09.338Z,1.30
2023-07-18T06:54:37.996Z,1.17
2023-07-18T06:57:07.096Z,1.50
2023-07-18T06:59:36.326Z,1.10
2023-07-18T07:02:05.050Z,1.25
2023-07-18T07:04:33.758Z,1.27
2023-07-18T07:07:02.965Z,1.30
2023-07-18T07:09:34.647Z,1.02
2023-07-18T07:12:03.420Z,1.02
2023-07-18T07:14:32.096Z,0.98
2023-07-18T07:17:00.789Z,1.30
2023-07-18T07:19:29.568Z,1.30
2023-07-18T07:21:58.355Z,1.05
2023-07-18T07:24:27.481Z,1.20
2023-07-18T07:26:57.600Z,1.30
2023-07-18T07:29:26.447Z,1.10
2023-07-18T07:31:55.275Z,1.20
2023-07-18T07:34:24.012Z,1.13
2023-07-18T07:36:52.689Z,1.00
2023-07-18T07:39:21.330Z,1.10
2023-07-18T07:41:50.066Z,1.25
2023-07-18T07:44:20.250Z,1.15
2023-07-18T07:46:49.039Z,1.35
2023-07-18T07:49:18.201Z,1.35
2023-07-18T07:51:47.051Z,1.10
2023-07-18T07:54:15.736Z,1.15
2023-07-18T07:56:44.457Z,1.20
2023-07-18T07:59:13.119Z,1.13
2023-07-18T08:01:43.300Z,1.45
2023-07-18T08:04:12.593Z,1.05
2023-07-18T08:06:41.699Z,1.00
2023-07-18T08:09:10.480Z,1.30
2023-07-18T08:11:39.324Z,0.98
2023-07-18T08:14:08.635Z,1.20
2023-07-18T08:16:37.442Z,1.10
2023-07-18T08:19:09.189Z,1.20
2023-07-18T08:21:38.140Z,0.90
2023-07-18T08:24:07.236Z,1.00
2023-07-18T08:26:36.069Z,1.20
2023-07-18T08:29:04.775Z,1.30
2023-07-18T08:31:33.661Z,0.80
2023-07-18T08:34:02.433Z,1.00
2023-07-18T08:36:33.234Z,0.90
2023-07-18T08:39:01.864Z,1.10
2023-07-18T08:41:31.139Z,1.20
2023-07-18T08:44:04.037Z,1.10
2023-07-18T08:46:33.328Z,1.30
2023-07-18T08:49:02.959Z,0.90
2023-07-18T08:51:33.779Z,0.90
2023-07-18T08:54:02.700Z,1.00
2023-07-18T08:56:31.615Z,1.30
2023-07-18T08:59:00.946Z,0.98
2023-07-18T09:01:29.764Z,1.20
2023-07-18T09:03:58.756Z,0.90
2023-07-18T09:06:27.578Z,1.23
2023-07-18T09:08:58.440Z,1.20
2023-07-18T09:11:27.233Z,1.05
2023-07-18T09:13:55.943Z,1.27
2023-07-18T09:16:25.038Z,1.48
2023-07-18T09:18:54.350Z,1.00
2023-07-18T09:21:24.049Z,1.38
2023-07-18T09:23:54.132Z,0.98
2023-07-18T09:26:24.778Z,1.00
2023-07-18T09:28:53.705Z,0.90
2023-07-18T09:31:23.390Z,1.15
2023-07-18T09:33:53.149Z,1.23
2023-07-18T09:36:22.813Z,1.20
2023-07-18T09:38:52.447Z,0.90
2023-07-18T09:41:22.461Z,1.30
2023-07-18T09:44:00.221Z,1.05
2023-07-18T09:46:42.745Z,0.90
2023-07-18T09:49:14.687Z,1.10
2023-07-18T09:51:47.709Z,0.90
2023-07-18T09:54:17.663Z,1.45
2023-07-18T09:56:47.325Z,0.95
2023-07-18T09:59:18.449Z,1.15
2023-07-18T10:01:50.252Z,0.80
2023-07-18T10:04:22.021Z,1.08
2023-07-18T10:06:51.296Z,1.13
2023-07-18T10:09:20.718Z,1.10
2023-07-18T10:12:08.168Z,1.00
2023-07-18T10:14:51.656Z,1.10
2023-07-18T10:17:37.589Z,0.93
2023-07-18T10:20:12.807Z,1.17
2023-07-18T10:22:49.342Z,0.90
2023-07-18T10:25:20.307Z,1.00
2023-07-18T10:27:49.903Z,1.10
2023-07-18T10:30:20.656Z,0.90
2023-07-18T10:32:56.551Z,0.90
2023-07-18T10:35:26.547Z,1.10
2023-07-18T10:37:56.333Z,1.00
2023-07-18T10:40:38.671Z,1.38
2023-07-18T10:43:07.890Z,1.08
2023-07-18T10:45:41.728Z,0.90
2023-07-18T10:48:14.281Z,1.00
2023-07-18T10:50:43.608Z,1.33
2023-07-18T10:53:13.287Z,1.15
2023-07-18T10:55:43.250Z,1.25
2023-07-18T10:58:12.614Z,1.20
2023-07-18T11:00:42.934Z,1.00
2023-07-18T11:03:20.743Z,1.20
2023-07-18T11:05:50.332Z,1.10
2023-07-18T11:08:26.504Z,1.23
2023-07-18T11:10:56.039Z,1.00
2023-07-18T11:13:29.135Z,1.05
2023-07-18T11:16:00.960Z,1.15
2023-07-18T11:18:33.295Z,0.98
2023-07-18T11:21:04.272Z,1.20
2023-07-18T11:23:33.269Z,1.08
2023-07-18T11:26:02.108Z,1.20
2023-07-18T11:28:31.560Z,1.10
2023-07-18T11:31:01.825Z,1.13
2023-07-18T11:33:30.813Z,1.10
2023-07-18T11:35:59.502Z,1.20
2023-07-18T11:38:30.630Z,1.17
2023-07-18T11:41:00.543Z,1.50
2023-07-18T11:43:31.908Z,1.10
2023-07-18T11:46:01.991Z,1.00
2023-07-18T11:48:30.939Z,1.08
2023-07-18T11:50:59.758Z,1.02
2023-07-18T11:53:28.791Z,1.38
2023-07-18T11:55:57.776Z,1.00
2023-07-18T11:58:27.588Z,1.00
2023-07-18T12:01:01.323Z,1.00
2023-07-18T12:03:31.815Z,1.33
2023-07-18T12:06:00.652Z,1.05
2023-07-18T12:08:29.365Z,1.00
2023-07-18T12:11:08.942Z,0.90
2023-07-18T12:13:39.194Z,1.10
2023-07-18T12:16:08.087Z,1.00
2023-07-18T12:18:38.205Z,0.90
2023-07-18T12:21:07.222Z,0.95
2023-07-18T12:23:36.022Z,1.23
2023-07-18T12:26:05.103Z,1.08
2023-07-18T12:28:34.124Z,1.30
2023-07-18T12:31:02.953Z,0.93
2023-07-18T12:33:31.793Z,0.90
2023-07-18T12:36:01.936Z,1.00
2023-07-18T12:38:30.666Z,1.00
2023-07-18T12:40:59.437Z,0.98
2023-07-18T12:43:28.198Z,1.10
2023-07-18T12:45:56.971Z,0.93
2023-07-18T12:48:25.637Z,1.00
2023-07-18T12:50:54.786Z,0.80
2023-07-18T12:53:24.884Z,0.90
2023-07-18T12:55:53.633Z,1.40
2023-07-18T12:58:22.381Z,1.02
2023-07-18T13:00:51.066Z,0.95
2023-07-18T13:03:20.193Z,0.90
2023-07-18T13:05:48.982Z,1.17
2023-07-18T13:08:17.740Z,0.90
2023-07-18T13:10:47.932Z,0.82
2023-07-18T13:13:17.220Z,1.08
2023-07-18T13:15:46.130Z,1.20
2023-07-18T13:18:14.883Z,1.00
2023-07-18T13:20:44.886Z,1.02
2023-07-18T13:23:13.910Z,1.10
2023-07-18T13:25:42.746Z,1.10
2023-07-18T13:28:12.902Z,1.10
2023-07-18T13:30:41.821Z,0.90
2023-07-18T13:33:11.897Z,1.20
2023-07-18T13:35:40.744Z,0.88
2023-07-18T13:38:09.456Z,1.00
2023-07-18T13:40:38.205Z,0.90
2023-07-18T13:43:06.984Z,0.80
2023-07-18T13:45:37.181Z,0.80
2023-07-18T13:48:07.016Z,0.95
2023-07-18T13:50:36.074Z,0.90
2023-07-18T13:53:05.049Z,1.00
2023-07-18T13:55:33.904Z,1.00
2023-07-18T13:58:02.677Z,1.10
2023-07-18T14:00:32.248Z,0.80
2023-07-18T14:03:02.441Z,0.60
2023-07-18T14:05:31.350Z,0.90
2023-07-18T14:08:00.044Z,0.90
2023-07-18T14:10:28.803Z,0.90
2023-07-18T14:12:57.506Z,0.70
2023-07-18T14:15:26.424Z,0.93
2023-07-18T14:17:55.599Z,0.90
2023-07-18T14:20:25.752Z,0.90
2023-07-18T14:22:54.548Z,0.82
2023-07-18T14:25:24.394Z,1.08
2023-07-18T14:27:54.357Z,0.80
2023-07-18T14:30:23.278Z,0.90
2023-07-18T14:32:54.533Z,0.90
2023-07-18T14:35:25.405Z,0.98
2023-07-18T14:37:54.154Z,0.90
2023-07-18T14:40:22.907Z,1.08
2023-07-18T14:42:51.675Z,1.40
2023-07-18T14:45:20.466Z,0.90
2023-07-18T14:47:49.212Z,0.85
2023-07-18T14:50:17.935Z,0.90
2023-07-18T14:52:49.314Z,1.25
2023-07-18T14:55:21.110Z,0.90
2023-07-18T14:57:50.285Z,0.77
2023-07-18T15:00:20.428Z,0.70
2023-07-18T15:02:49.519Z,1.20
2023-07-18T15:05:18.371Z,0.77
2023-07-18T15:07:49.523Z,0.80
2023-07-18T15:10:18.293Z,0.90
2023-07-18T15:12:48.244Z,0.90
2023-07-18T15:15:17.481Z,0.80
2023-07-18T15:17:47.572Z,1.05
2023-07-18T15:20:16.947Z,1.08
2023-07-18T15:22:47.587Z,0.82
2023-07-18T15:25:17.775Z,0.80
2023-07-18T15:27:46.423Z,0.80
2023-07-18T15:30:15.272Z,0.90
2023-07-18T15:32:46.870Z,0.80
2023-07-18T15:35:16.097Z,1.00
2023-07-18T15:37:44.799Z,0.90
2023-07-18T15:40:13.938Z,0.90
2023-07-18T15:42:44.364Z,0.60
2023-07-18T15:45:13.267Z,1.00
2023-07-18T15:47:42.169Z,0.95
2023-07-18T15:50:12.595Z,1.40
2023-07-18T15:52:41.338Z,1.00
2023-07-18T15:55:10.516Z,1.10
2023-07-18T15:57:39.846Z,1.08
2023-07-18T16:00:10.948Z,1.67
2023-07-18T16:02:39.880Z,1.30
2023-07-18T16:05:09.676Z,1.10
2023-07-18T16:07:38.433Z,1.20
2023-07-18T16:10:07.650Z,0.90
2023-07-18T16:12:36.374Z,1.40
2023-07-18T16:15:05.311Z,0.80
2023-07-18T16:17:35.662Z,0.90
2023-07-18T16:20:05.330Z,0.93
2023-07-18T16:22:34.154Z,0.80
2023-07-18T16:25:05.707Z,0.70
2023-07-18T16:27:34.725Z,0.98
2023-07-18T16:30:03.409Z,0.70
2023-07-18T16:32:34.270Z,0.70
2023-07-18T16:35:05.205Z,0.50
2023-07-18T16:37:33.899Z,0.75
2023-07-18T16:40:02.569Z,0.70
2023-07-18T16:42:31.439Z,0.60
2023-07-18T16:45:00.219Z,0.70
2023-07-18T16:47:29.147Z,1.00
2023-07-18T16:49:58.220Z,0.70
2023-07-18T16:52:28.608Z,0.80
2023-07-18T16:54:57.351Z,0.80
2023-07-18T16:57:26.036Z,0.73
2023-07-18T16:59:54.763Z,0.77
2023-07-18T17:02:23.596Z,0.98
2023-07-18T17:04:52.623Z,0.90
2023-07-18T17:07:21.471Z,0.80
2023-07-18T17:09:51.517Z,0.93
2023-07-18T17:12:20.185Z,0.80
2023-07-18T17:14:48.969Z,0.80
2023-07-18T17:17:17.825Z,1.00
2023-07-18T17:19:58.948Z,0.80
2023-07-18T17:22:36.153Z,0.63
2023-07-18T17:25:07.052Z,0.70
2023-07-18T17:27:36.540Z,0.88
2023-07-18T17:30:06.208Z,0.82
2023-07-18T17:32:35.315Z,0.80
2023-07-18T17:35:04.861Z,0.85
2023-07-18T17:37:33.986Z,1.38
2023-07-18T17:40:07.089Z,0.90
2023-07-18T17:42:38.593Z,0.82
2023-07-18T17:45:08.351Z,0.90
2023-07-18T17:47:37.274Z,1.00
2023-07-18T17:50:06.474Z,1.00
2023-07-18T17:52:35.661Z,1.00
2023-07-18T17:55:06.134Z,1.00
2023-07-18T17:57:34.915Z,1.00
2023-07-18T18:00:04.413Z,1.00
2023-07-18T18:02:34.318Z,0.60
2023-07-18T18:05:05.062Z,0.93
2023-07-18T18:07:33.698Z,0.70
2023-07-18T18:10:02.378Z,0.70
2023-07-18T18:12:32.664Z,0.70
2023-07-18T18:15:01.445Z,0.95
2023-07-18T18:17:30.527Z,0.65
2023-07-18T18:19:59.229Z,0.90
2023-07-18T18:22:27.974Z,0.73
2023-07-18T18:24:56.639Z,0.80
2023-07-18T18:27:25.424Z,0.73
2023-07-18T18:29:55.525Z,0.90
2023-07-18T18:32:24.280Z,0.95
2023-07-18T18:35:06.298Z,0.80
2023-07-18T18:37:36.532Z,0.50
2023-07-18T18:40:05.405Z,0.70
2023-07-18T18:42:34.792Z,0.80
2023-07-18T18:45:05.579Z,0.70
2023-07-18T18:47:34.520Z,0.70
2023-07-18T18:50:03.254Z,0.60
2023-07-18T18:52:32.019Z,0.70
2023-07-18T18:55:17.245Z,0.80
2023-07-18T18:57:48.513Z,0.50
2023-07-18T19:00:19.060Z,0.60
2023-07-18T19:02:48.024Z,0.80
2023-07-18T19:05:16.871Z,0.60
2023-07-18T19:07:45.540Z,0.60
2023-07-18T19:10:14.320Z,0.65
2023-07-18T19:12:43.142Z,0.60
2023-07-18T19:15:12.294Z,0.80
2023-07-18T19:17:43.154Z,0.60
2023-07-18T19:20:12.716Z,0.60
2023-07-18T19:22:41.505Z,0.65
2023-07-18T19:25:10.673Z,0.90
2023-07-18T19:27:39.455Z,0.98
2023-07-18T19:30:09.498Z,0.77
2023-07-18T19:32:39.286Z,1.33
2023-07-18T19:35:09.948Z,0.82
2023-07-18T19:37:38.703Z,0.93
2023-07-18T19:40:08.247Z,0.80
2023-07-18T19:42:37.121Z,0.88
2023-07-18T19:45:06.041Z,0.70
2023-07-18T19:47:34.879Z,0.80
2023-07-18T19:50:04.064Z,0.70
2023-07-18T19:52:34.128Z,0.70
2023-07-18T19:55:02.870Z,0.82
2023-07-18T19:57:31.602Z,0.70
2023-07-18T20:00:00.321Z,0.90
2023-07-18T20:02:29.169Z,0.80
2023-07-18T20:04:58.078Z,0.95
2023-07-18T20:07:26.909Z,0.80
2023-07-18T20:09:57.908Z,0.90
2023-07-18T20:12:26.664Z,0.82
2023-07-18T20:14:55.696Z,0.80
2023-07-18T20:17:24.616Z,0.90
2023-07-18T20:19:53.498Z,1.00
2023-07-18T20:22:24.006Z,0.85
2023-07-18T20:24:53.154Z,1.05
2023-07-18T20:27:23.211Z,1.00
2023-07-18T20:29:51.922Z,0.77
2023-07-18T20:32:20.696Z,1.05
2023-07-18T20:34:49.525Z,0.95
2023-07-18T20:37:18.412Z,0.90
2023-07-18T20:39:47.164Z,0.93
2023-07-18T20:42:15.911Z,0.90
2023-07-18T20:44:46.218Z,0.98
2023-07-18T20:47:14.973Z,0.90
2023-07-18T20:49:43.656Z,0.70
2023-07-18T20:52:14.528Z,0.80
2023-07-18T20:54:43.343Z,0.68
2023-07-18T20:57:12.078Z,0.77
2023-07-18T20:59:40.807Z,0.80
2023-07-18T21:02:11.046Z,0.75
2023-07-18T21:04:39.881Z,0.70
2023-07-18T21:07:08.654Z,0.70
2023-07-18T21:09:37.397Z,1.10
2023-07-18T21:12:06.502Z,0.85
2023-07-18T21:14:35.154Z,1.00
2023-07-18T21:17:04.124Z,0.77
2023-07-18T21:19:34.406Z,1.00
2023-07-18T21:22:03.156Z,0.80
2023-07-18T21:24:31.804Z,1.08
2023-07-18T21:27:00.569Z,1.00
2023-07-18T21:29:29.574Z,0.73
2023-07-18T21:31:58.901Z,0.70
2023-07-18T21:34:27.628Z,0.90
2023-07-18T21:36:58.413Z,0.80
2023-07-18T21:39:27.235Z,0.70
2023-07-18T21:41:56.149Z,0.63
2023-07-18T21:44:24.816Z,0.98
2023-07-18T21:46:53.513Z,0.75
2023-07-18T21:49:22.373Z,0.73
2023-07-18T21:51:51.186Z,1.00
2023-07-18T21:54:21.356Z,0.70
2023-07-18T21:56:50.151Z,0.98
2023-07-18T21:59:18.857Z,0.98
2023-07-18T22:01:47.736Z,0.88
2023-07-18T22:04:16.445Z,0.80
2023-07-18T22:06:45.300Z,0.80
2023-07-18T22:09:14.014Z,0.88
2023-07-18T22:11:44.190Z,0.80
2023-07-18T22:14:12.909Z,0.70
2023-07-18T22:16:41.701Z,1.17
2023-07-18T22:19:10.418Z,0.75
2023-07-18T22:21:39.105Z,0.82
2023-07-18T22:24:08.299Z,0.90
2023-07-18T22:26:37.257Z,0.73
2023-07-18T22:29:07.398Z,1.00
2023-07-18T22:31:36.140Z,0.95
2023-07-18T22:34:04.941Z,0.90
2023-07-18T22:36:33.696Z,0.98
2023-07-18T22:39:02.529Z,0.80
2023-07-18T22:41:32.033Z,0.70
2023-07-18T22:44:00.921Z,0.85
2023-07-18T22:46:31.073Z,1.10
2023-07-18T22:49:00.941Z,0.88
2023-07-18T22:51:29.979Z,1.05
2023-07-18T22:53:58.878Z,1.00
2023-07-18T22:56:27.710Z,1.13
2023-07-18T22:58:56.424Z,1.08
2023-07-18T23:01:25.679Z,0.90
2023-07-18T23:03:55.849Z,1.02
2023-07-18T23:06:24.546Z,1.02
2023-07-18T23:08:53.276Z,0.90
2023-07-18T23:11:22.206Z,0.90
2023-07-18T23:13:51.088Z,0.85
2023-07-18T23:16:19.881Z,1.25
2023-07-18T23:18:48.821Z,0.98
2023-07-18T23:21:19.323Z,0.90
2023-07-18T23:23:48.290Z,1.13
2023-07-18T23:26:16.965Z,0.98
2023-07-18T23:28:45.762Z,0.90
2023-07-18T23:31:15.029Z,0.93
2023-07-18T23:33:43.828Z,1.00
2023-07-18T23:36:12.738Z,1.08
2023-07-18T23:38:43.001Z,1.20
2023-07-18T23:41:11.712Z,0.82
2023-07-18T23:43:40.553Z,0.65
2023-07-18T23:46:09.326Z,1.20
2023-07-18T23:48:38.128Z,1.20
2023-07-18T23:51:08.032Z,0.90
2023-07-18T23:53:36.802Z,1.00
2023-07-18T23:56:07.015Z,1.13
2023-07-18T23:58:35.904Z,1.00
